Campo Do Tenente, Brazil
Current Conditions -  °F | °C
As of 10:00 AM on Tuesday 21 Oct 2014 (Local Time) from SBCT Reporting Station
Scattered Clouds Scattered Clouds  
Wind Chill: 61°   Ceiling: Unl
Heat Index: 61°   Visibility: 6mi
Dew Point: 48°   Wind: 12mph
Humidity: 63%   Direction: 120°ESE
Pressure: 30.27"   Gusts: NA
Location:  25.98°S, 49.69°W
Report Text: SBCT 211200Z 12010KT 9999 FEW013 SCT020 16/09 Q1025
Loading
Personal Weather Stations






























Interactive Weather Map
Tropical Storm Tracking
New forecast layout! Learn more

10-Day Weather Forecast

Advertisements
Track Severe Weather on mobile